Terminal Aerodrome Forecast
Issued by NWS Missoula, MT

Home | Current Version | Previous Version | Text Only | Print | Product List | Glossary On
Versions: 1 2 3 4 5 6 7 8 9 10 11 12 13 14
133
FTUS45 KMSO 201133
TAFBTM
TAF
KBTM 201133Z 2012/2112 23006KT P6SM VCSH BKN110
     FM202100 19010KT P6SM -SN BKN030 OVC060
     FM210300 25008KT P6SM VCSH BKN060=

USA.gov is the U.S. government's official web portal to all federal, state and local government web resources and services.